Time;durP1;ratioP1;P1;durP2;ratioP2;P2;SDS_P1;SDS_P2;PMS_P1;PMS_P2;Temp;Humidity;BMP_temperature;BMP_pressure;BME280_temperature;BME280_humidity;BME280_pressure;Samples;Min_cycle;Max_cycle;Signal;HPM_P1;HPM_P2
2021/08/31 00:00:15;;;;;;;10.10;7.45;;;;;;;12.09;100.00;95006.72;4996260;28;20484;-58
2021/08/31 00:02:41;;;;;;;9.00;6.40;;;;;;;12.08;100.00;95013.19;4995936;28;20050;-59
2021/08/31 00:05:11;;;;;;;7.60;6.43;;;;;;;12.06;100.00;95014.53;5013777;28;20032;-56
2021/08/31 00:07:36;;;;;;;8.35;5.95;;;;;;;12.03;100.00;95018.56;5013886;28;20621;-58
2021/08/31 00:10:06;;;;;;;8.00;5.97;;;;;;;12.01;100.00;95009.97;5013874;28;20026;-58
2021/08/31 00:12:35;;;;;;;6.72;5.45;;;;;;;11.99;100.00;95011.34;5013246;28;20041;-58
2021/08/31 00:15:04;;;;;;;7.13;5.82;;;;;;;11.98;100.00;95015.09;4996179;28;20032;-58
2021/08/31 00:17:32;;;;;;;7.55;5.55;;;;;;;11.96;100.00;95007.34;5013453;28;20029;-57
2021/08/31 00:19:58;;;;;;;10.55;6.75;;;;;;;11.96;100.00;95009.22;4995439;28;20079;-57
2021/08/31 00:22:26;;;;;;;7.88;5.82;;;;;;;11.97;100.00;95002.75;5013009;28;20034;-59
2021/08/31 00:24:55;;;;;;;8.95;6.45;;;;;;;11.97;100.00;94998.19;5013759;28;20033;-59
2021/08/31 00:27:22;;;;;;;9.70;6.57;;;;;;;11.96;100.00;95004.66;4996662;28;20060;-58
2021/08/31 00:29:50;;;;;;;9.77;6.63;;;;;;;11.97;100.00;95008.94;4996118;28;20037;-57
2021/08/31 00:32:16;;;;;;;6.78;5.78;;;;;;;11.96;100.00;95003.84;4995172;28;20373;-56
2021/08/31 00:34:41;;;;;;;8.50;6.10;;;;;;;11.95;100.00;95005.72;5013439;28;20105;-58
2021/08/31 00:37:07;;;;;;;8.65;6.25;;;;;;;11.96;100.00;95004.66;5013223;28;20092;-58
2021/08/31 00:39:41;;;;;;;7.13;5.68;;;;;;;11.96;100.00;95003.84;4996016;28;20030;-59
2021/08/31 00:42:12;;;;;;;9.82;6.22;;;;;;;11.97;100.00;95003.56;5012763;28;20140;-56
2021/08/31 00:44:39;;;;;;;8.00;6.45;;;;;;;11.97;100.00;95006.25;5005663;28;20049;-59
2021/08/31 00:47:11;;;;;;;7.07;5.70;;;;;;;11.97;100.00;95000.06;5013085;28;20065;-59
2021/08/31 00:49:41;;;;;;;8.00;6.13;;;;;;;11.97;100.00;95008.94;5012889;28;20026;-58
2021/08/31 00:52:07;;;;;;;7.43;6.30;;;;;;;11.97;100.00;95002.75;5012691;28;20024;-59
2021/08/31 00:54:35;;;;;;;7.55;6.07;;;;;;;11.97;100.00;95008.13;5013061;28;20455;-59
2021/08/31 00:57:04;;;;;;;8.65;6.53;;;;;;;11.96;100.00;94999.28;5012863;28;20484;-59
2021/08/31 00:59:38;;;;;;;10.68;6.40;;;;;;;11.96;100.00;95004.66;5012734;28;20026;-59
2021/08/31 01:02:06;;;;;;;11.30;6.80;;;;;;;11.95;100.00;94997.69;5011853;28;20408;-59
2021/08/31 01:04:34;;;;;;;8.68;6.68;;;;;;;11.93;100.00;94999.81;4995817;28;20052;-55
2021/08/31 01:07:00;;;;;;;9.07;6.22;;;;;;;11.92;100.00;94998.19;5013384;28;20025;-58
2021/08/31 01:09:29;;;;;;;6.80;5.88;;;;;;;11.90;100.00;94997.69;5013399;28;20022;-58
2021/08/31 01:11:59;;;;;;;6.70;5.78;;;;;;;11.90;100.00;94995.00;5013344;28;20033;-58
2021/08/31 01:14:25;;;;;;;8.50;6.63;;;;;;;11.92;100.00;94990.16;4977135;28;20037;-59
2021/08/31 01:16:52;;;;;;;9.65;6.53;;;;;;;11.92;100.00;94995.50;5013323;28;20032;-59
2021/08/31 01:19:30;;;;;;;7.72;6.25;;;;;;;11.90;100.00;94993.13;4995534;28;20477;-56
2021/08/31 01:21:59;;;;;;;7.75;6.60;;;;;;;11.87;100.00;94993.66;5013244;28;20459;-60
2021/08/31 01:24:24;;;;;;;7.30;6.20;;;;;;;11.87;100.00;95003.59;5013065;28;20029;-59
2021/08/31 01:26:50;;;;;;;7.35;6.18;;;;;;;11.87;100.00;94998.25;5013303;28;20465;-59
2021/08/31 01:29:16;;;;;;;8.30;6.60;;;;;;;11.86;100.00;95004.69;5013093;28;20029;-58
2021/08/31 01:31:42;;;;;;;7.00;6.05;;;;;;;11.82;100.00;95004.41;5012935;28;20029;-59
2021/08/31 01:34:10;;;;;;;8.05;5.97;;;;;;;11.78;100.00;94989.91;5012997;28;20022;-53
2021/08/31 01:36:41;;;;;;;7.82;6.10;;;;;;;11.76;100.00;94997.44;5012816;28;20511;-56
2021/08/31 01:39:10;;;;;;;9.70;6.35;;;;;;;11.71;100.00;95000.13;5012885;28;20029;-53
2021/08/31 01:41:38;;;;;;;9.02;5.97;;;;;;;11.67;100.00;95009.81;4995841;28;20384;-53
2021/08/31 01:44:10;;;;;;;8.48;6.47;;;;;;;11.62;100.00;95004.47;5013126;28;20026;-56
2021/08/31 01:46:36;;;;;;;9.50;6.85;;;;;;;11.58;100.00;95012.25;5012958;28;20018;-55
2021/08/31 01:49:01;;;;;;;9.02;6.43;;;;;;;11.56;100.00;95010.91;5012787;28;20044;-55
2021/08/31 01:51:29;;;;;;;9.55;6.45;;;;;;;11.56;100.00;95005.56;5012570;28;20025;-58
2021/08/31 01:53:57;;;;;;;9.25;6.38;;;;;;;11.57;100.00;95005.28;4995519;28;20418;-59
2021/08/31 01:56:22;;;;;;;7.72;5.78;;;;;;;11.60;100.00;94996.66;5012595;28;20103;-58
2021/08/31 01:58:51;;;;;;;10.70;5.97;;;;;;;11.57;100.00;94999.91;4995158;28;20021;-58
2021/08/31 02:01:16;;;;;;;7.22;5.95;;;;;;;11.54;100.00;95000.47;4999192;28;20048;-59
2021/08/31 02:03:44;;;;;;;12.27;6.78;;;;;;;11.49;100.00;95003.13;5012536;28;20108;-58
2021/08/31 02:06:09;;;;;;;10.40;6.40;;;;;;;11.43;100.00;95009.59;5011114;28;20129;-58
2021/08/31 02:08:53;;;;;;;8.68;5.57;;;;;;;11.41;100.00;95010.97;5012695;28;20108;-57
2021/08/31 02:11:20;;;;;;;;;;;;;;;11.39;100.00;95015.78;5011664;28;20053;-58
2021/08/31 02:13:48;;;;;;;8.32;5.22;;;;;;;11.38;100.00;95012.28;5012614;28;19968;-58
2021/08/31 02:16:14;;;;;;;8.00;6.13;;;;;;;11.42;100.00;95005.31;5012419;28;20080;-57
2021/08/31 02:18:45;;;;;;;7.88;5.90;;;;;;;11.46;100.00;95001.00;5012299;28;20037;-58
2021/08/31 02:21:16;;;;;;;10.15;6.43;;;;;;;11.51;100.00;95002.91;5012370;28;20029;-58
2021/08/31 02:23:45;;;;;;;8.38;5.82;;;;;;;11.55;100.00;95001.25;5010833;28;20113;-58
2021/08/31 02:26:20;;;;;;;9.13;5.75;;;;;;;11.59;100.00;95005.78;5011140;28;20021;-53
2021/08/31 02:28:47;;;;;;;8.07;5.85;;;;;;;11.63;100.00;95002.59;5012501;28;20026;-54
2021/08/31 02:31:13;;;;;;;7.57;6.45;;;;;;;11.68;100.00;94997.19;5012398;28;20021;-54
2021/08/31 02:33:38;;;;;;;9.32;6.82;;;;;;;11.68;100.00;94999.88;5012321;28;20384;-54
2021/08/31 02:36:04;;;;;;;9.38;6.93;;;;;;;11.69;100.00;94996.91;5012147;28;20396;-54
2021/08/31 02:38:32;;;;;;;7.88;6.28;;;;;;;11.72;100.00;94992.88;5012351;28;20455;-56
2021/08/31 02:41:03;;;;;;;7.13;6.00;;;;;;;11.73;100.00;94994.50;5012118;28;20037;-55
2021/08/31 02:43:29;;;;;;;11.48;6.70;;;;;;;11.70;100.00;94993.16;5012918;28;20061;-55
2021/08/31 02:45:56;;;;;;;7.55;5.88;;;;;;;11.68;100.00;94991.84;5016157;28;20068;-56
2021/08/31 02:48:22;;;;;;;10.60;6.93;;;;;;;11.68;100.00;94989.16;5016170;28;20444;-54
2021/08/31 02:50:50;;;;;;;7.70;6.30;;;;;;;11.68;100.00;94991.84;5014690;28;20029;-54
2021/08/31 02:53:16;;;;;;;8.98;6.22;;;;;;;11.68;100.00;94983.78;5014422;28;20022;-57
2021/08/31 02:55:41;;;;;;;8.73;6.25;;;;;;;11.68;100.00;94987.25;5013378;28;20029;-57
2021/08/31 02:58:07;;;;;;;8.43;6.05;;;;;;;11.66;100.00;94988.63;5014260;28;20029;-57
2021/08/31 03:00:33;;;;;;;8.25;6.70;;;;;;;11.67;100.00;94988.34;5014103;28;20051;-56
2021/08/31 03:03:09;;;;;;;9.20;6.30;;;;;;;11.69;100.00;94985.38;4998221;28;20037;-58
2021/08/31 03:05:37;;;;;;;9.00;6.38;;;;;;;11.67;100.00;94982.19;5015785;28;20026;-57
2021/08/31 03:08:06;;;;;;;8.05;6.53;;;;;;;11.65;100.00;94982.47;5015691;28;20167;-58
2021/08/31 03:10:34;;;;;;;8.50;6.20;;;;;;;11.64;100.00;94988.09;4997826;28;20030;-58
2021/08/31 03:12:59;;;;;;;11.70;6.97;;;;;;;11.57;100.00;94991.06;5015682;28;20032;-56
2021/08/31 03:15:41;;;;;;;9.75;6.82;;;;;;;11.55;100.00;94983.28;5015478;28;20029;-50
2021/08/31 03:18:09;;;;;;;7.72;6.43;;;;;;;11.55;100.00;94988.66;5015542;28;20030;-54
2021/08/31 03:20:37;;;;;;;7.93;6.20;;;;;;;11.55;100.00;94983.28;5015534;28;20036;-56
2021/08/31 03:23:05;;;;;;;9.88;7.15;;;;;;;11.55;100.00;94980.59;5015218;28;20457;-54
2021/08/31 03:25:30;;;;;;;10.57;6.68;;;;;;;11.57;100.00;94985.69;4997815;28;20049;-51
2021/08/31 03:27:56;;;;;;;8.27;6.45;;;;;;;11.57;100.00;94981.13;5015370;28;20459;-54
2021/08/31 03:30:21;;;;;;;12.43;6.60;;;;;;;11.61;100.00;94967.97;5015397;28;20045;-53
2021/08/31 03:32:53;;;;;;;9.73;6.20;;;;;;;11.61;100.00;94979.53;5015194;28;20096;-55
2021/08/31 03:35:20;;;;;;;8.30;6.50;;;;;;;11.63;100.00;94981.13;5015295;28;20026;-54
2021/08/31 03:37:48;;;;;;;7.95;6.57;;;;;;;11.60;100.00;94979.78;5014931;28;20152;-51
2021/08/31 03:40:16;;;;;;;9.70;6.63;;;;;;;11.59;100.00;94980.84;5015133;28;20087;-52
2021/08/31 03:42:48;;;;;;;9.50;6.57;;;;;;;11.65;100.00;94984.34;5015164;28;20100;-53
2021/08/31 03:45:24;;;;;;;11.98;6.57;;;;;;;11.58;100.00;94982.72;5015127;28;20057;-52
2021/08/31 03:47:49;;;;;;;10.10;7.15;;;;;;;11.67;100.00;94988.34;5015544;28;20021;-53
2021/08/31 03:50:15;;;;;;;10.00;6.82;;;;;;;11.58;100.00;94995.34;5014726;28;20465;-52
2021/08/31 03:52:50;;;;;;;8.20;6.38;;;;;;;11.55;100.00;94987.84;5014967;28;20435;-58
2021/08/31 03:55:18;;;;;;;6.85;6.15;;;;;;;11.58;100.00;94989.97;5014747;28;20025;-54
2021/08/31 03:57:44;;;;;;;8.68;6.13;;;;;;;11.52;100.00;94986.53;5014694;28;20508;-55
2021/08/31 04:00:18;;;;;;;12.93;7.03;;;;;;;11.56;100.00;94989.47;4997156;28;20064;-58
2021/08/31 04:02:43;;;;;;;7.45;6.65;;;;;;;11.58;100.00;94985.41;5014382;28;20096;-58
2021/08/31 04:05:09;;;;;;;6.85;6.15;;;;;;;11.70;100.00;94992.34;5014839;28;20025;-57
2021/08/31 04:07:35;;;;;;;10.70;6.55;;;;;;;11.62;100.00;94996.44;5014586;28;20021;-58
2021/08/31 04:10:00;;;;;;;10.88;7.05;;;;;;;11.64;100.00;94990.78;5014428;28;20021;-58
2021/08/31 04:12:29;;;;;;;13.80;7.35;;;;;;;11.64;100.00;94994.25;5014508;28;20469;-57
2021/08/31 04:14:54;;;;;;;8.68;6.85;;;;;;;11.65;100.00;94995.06;5014480;28;20030;-57
2021/08/31 04:17:22;;;;;;;7.38;6.30;;;;;;;11.65;100.00;94993.19;5014158;28;20500;-57
2021/08/31 04:19:47;;;;;;;8.25;6.53;;;;;;;11.70;100.00;94984.31;5014603;28;20032;-56
2021/08/31 04:22:13;;;;;;;15.80;6.25;;;;;;;11.65;100.00;94985.13;4996816;28;20025;-58
2021/08/31 04:24:38;;;;;;;10.00;6.68;;;;;;;11.67;100.00;94984.88;4996940;28;20502;-52
2021/08/31 04:27:06;;;;;;;7.47;6.30;;;;;;;11.66;100.00;94984.06;5014481;28;20022;-57
2021/08/31 04:29:32;;;;;;;11.23;6.95;;;;;;;11.66;100.00;94986.75;5014272;28;20030;-53
2021/08/31 04:31:57;;;;;;;7.65;6.35;;;;;;;11.65;100.00;94990.50;5014005;28;20076;-59
2021/08/31 04:34:23;;;;;;;9.02;6.93;;;;;;;11.62;100.00;94985.69;5014119;28;20087;-57
2021/08/31 04:36:51;;;;;;;9.02;6.97;;;;;;;11.61;100.00;94992.09;5014069;28;20449;-58
2021/08/31 04:39:17;;;;;;;11.15;7.30;;;;;;;11.67;100.00;94992.91;5014156;28;20067;-58
2021/08/31 04:41:42;;;;;;;11.82;7.45;;;;;;;11.67;100.00;94987.53;5013917;28;20026;-55
2021/08/31 04:44:16;;;;;;;11.75;7.38;;;;;;;11.65;100.00;94992.38;5013906;28;20026;-55
2021/08/31 04:46:47;;;;;;;9.52;7.72;;;;;;;11.66;100.00;94996.66;5014166;28;20076;-54
2021/08/31 04:49:15;;;;;;;8.30;7.00;;;;;;;11.67;100.00;94990.22;5013876;28;20028;-53
2021/08/31 04:51:43;;;;;;;9.48;7.55;;;;;;;11.63;100.00;94987.28;5013937;28;20034;-58
2021/08/31 04:54:08;;;;;;;10.05;7.45;;;;;;;11.59;100.00;94999.63;4996130;28;20053;-60
2021/08/31 04:56:33;;;;;;;12.40;7.43;;;;;;;11.55;100.00;94994.03;5013554;28;20018;-57
2021/08/31 04:59:06;;;;;;;13.77;8.20;;;;;;;11.53;100.00;95003.41;5013474;28;20498;-59
2021/08/31 05:01:38;;;;;;;9.77;7.70;;;;;;;11.50;100.00;95007.44;4998380;28;20490;-58
2021/08/31 05:04:03;;;;;;;9.93;7.63;;;;;;;11.49;100.00;95013.88;5000603;28;20507;-59
2021/08/31 05:06:32;;;;;;;15.88;8.07;;;;;;;11.45;100.00;95009.34;5011893;28;20030;-59
2021/08/31 05:09:11;;;;;;;9.93;7.97;;;;;;;11.40;100.00;95012.03;5009162;28;20124;-57
2021/08/31 05:11:39;;;;;;;8.93;7.50;;;;;;;11.30;100.00;95015.53;5036698;28;20107;-59
2021/08/31 05:14:07;;;;;;;8.95;7.70;;;;;;;11.24;100.00;95017.41;5013549;28;20025;-59
2021/08/31 05:16:34;;;;;;;11.55;7.80;;;;;;;11.22;100.00;95021.44;5013406;28;20381;-58
2021/08/31 05:19:06;;;;;;;12.80;7.90;;;;;;;11.21;100.00;95022.53;5013445;28;20040;-59
2021/08/31 05:21:31;;;;;;;9.98;7.82;;;;;;;11.23;100.00;95025.72;5013583;28;20022;-57
2021/08/31 05:23:57;;;;;;;11.45;7.50;;;;;;;11.26;100.00;95019.81;5013208;28;20350;-59
2021/08/31 05:26:23;;;;;;;11.10;7.97;;;;;;;11.28;100.00;95023.03;5013227;28;20029;-58
2021/08/31 05:28:48;;;;;;;9.50;7.72;;;;;;;11.29;100.00;95020.09;5013231;28;20380;-58
2021/08/31 05:31:24;;;;;;;11.90;7.50;;;;;;;11.32;100.00;95026.78;5013191;28;20053;-57
2021/08/31 05:33:57;;;;;;;9.43;7.55;;;;;;;11.35;100.00;95028.13;5013236;28;20485;-58
2021/08/31 05:36:27;;;;;;;9.85;7.22;;;;;;;11.39;100.00;95029.97;5011409;28;20037;-57
2021/08/31 05:38:58;;;;;;;9.85;7.22;;;;;;;11.38;100.00;95038.31;5011864;28;20034;-55
2021/08/31 05:41:35;;;;;;;7.88;6.63;;;;;;;11.40;100.00;95039.66;5013011;28;20030;-50
2021/08/31 05:44:09;;;;;;;9.82;6.88;;;;;;;11.42;100.00;95037.50;5012964;28;20026;-53
2021/08/31 05:46:35;;;;;;;11.35;8.07;;;;;;;11.51;100.00;95037.75;5012934;28;20469;-54
2021/08/31 05:49:03;;;;;;;11.90;8.88;;;;;;;11.57;100.00;95033.97;5012563;28;20036;-53
2021/08/31 05:51:33;;;;;;;11.93;9.48;;;;;;;11.70;100.00;95028.03;5012855;28;20489;-51
2021/08/31 05:54:02;;;;;;;12.75;9.18;;;;;;;11.89;100.00;95037.13;5012836;28;20032;-53
2021/08/31 05:56:27;;;;;;;12.63;9.65;;;;;;;11.93;100.00;95040.06;5012689;28;20477;-52
2021/08/31 05:58:55;;;;;;;13.63;10.13;;;;;;;12.11;100.00;95041.34;5012812;28;20037;-51
2021/08/31 06:01:22;;;;;;;13.68;9.98;;;;;;;12.26;100.00;95029.72;5010957;28;20412;-55
2021/08/31 06:03:48;;;;;;;13.63;10.27;;;;;;;12.34;100.00;95043.38;5011356;28;20066;-59
2021/08/31 06:06:17;;;;;;;22.00;11.82;;;;;;;12.39;100.00;95037.19;5011407;28;20446;-58
2021/08/31 06:08:43;;;;;;;12.93;9.50;;;;;;;12.44;100.00;95043.34;5012654;28;20025;-59
2021/08/31 06:11:08;;;;;;;11.80;9.15;;;;;;;12.44;100.00;95035.28;5011520;28;20068;-57
2021/08/31 06:13:34;;;;;;;14.70;9.90;;;;;;;12.51;100.00;95034.97;5010766;28;20064;-59
2021/08/31 06:15:59;;;;;;;12.27;10.20;;;;;;;12.67;100.00;95033.78;5010796;28;20022;-57
2021/08/31 06:18:25;;;;;;;12.25;9.32;;;;;;;12.94;100.00;95027.16;5011795;28;20049;-55
2021/08/31 06:20:51;;;;;;;12.98;9.93;;;;;;;13.01;100.00;95031.13;5012482;28;20076;-59
2021/08/31 06:23:17;;;;;;;15.93;10.05;;;;;;;13.15;100.00;95028.59;5011171;28;20022;-56
2021/08/31 06:25:42;;;;;;;10.98;9.27;;;;;;;13.24;100.00;95015.38;5012538;28;20393;-56
2021/08/31 06:28:08;;;;;;;12.18;9.65;;;;;;;13.42;100.00;95011.16;5011103;28;20432;-55
2021/08/31 06:30:33;;;;;;;12.98;10.43;;;;;;;13.43;100.00;95015.47;5010888;28;20025;-55
2021/08/31 06:33:01;;;;;;;14.10;10.40;;;;;;;13.48;100.00;95012.75;5012389;28;20022;-56
2021/08/31 06:35:29;;;;;;;13.70;9.40;;;;;;;13.59;100.00;95025.81;5011168;28;20073;-55
2021/08/31 06:38:02;;;;;;;10.75;9.07;;;;;;;13.86;100.00;95017.16;5010888;28;20026;-55
2021/08/31 06:40:29;;;;;;;;;;;;;;;14.10;100.00;95019.03;4961476;28;20091;-56
2021/08/31 06:42:58;;;;;;;13.18;9.55;;;;;;;14.36;100.00;95012.25;5027188;28;19916;-57
2021/08/31 06:45:23;;;;;;;12.48;8.63;;;;;;;14.74;100.00;95006.88;5010853;28;20040;-54
2021/08/31 06:47:48;;;;;;;11.40;8.90;;;;;;;15.17;100.00;94998.66;5012244;28;20022;-57
2021/08/31 06:50:17;;;;;;;10.40;8.35;;;;;;;15.50;100.00;94994.03;4991293;28;20025;-56
2021/08/31 06:52:45;;;;;;;10.27;7.90;;;;;;;15.87;100.00;94985.00;5012361;28;20428;-58
2021/08/31 06:55:11;;;;;;;8.27;6.70;;;;;;;16.03;100.00;94975.47;5012161;28;20026;-59
2021/08/31 06:57:40;;;;;;;9.30;7.25;;;;;;;16.34;100.00;94972.13;5011875;28;20018;-59
2021/08/31 07:00:17;;;;;;;10.60;7.47;;;;;;;16.65;100.00;94959.53;5010625;28;20030;-61
2021/08/31 07:02:47;;;;;;;8.95;7.47;;;;;;;16.73;100.00;94952.63;5011273;28;20061;-61
2021/08/31 07:05:15;;;;;;;10.20;7.32;;;;;;;16.69;100.00;94947.03;5010795;28;20065;-62
2021/08/31 07:07:44;;;;;;;9.38;6.57;;;;;;;16.83;100.00;94944.28;5012047;28;20026;-62
2021/08/31 07:10:10;;;;;;;7.85;6.63;;;;;;;16.98;100.00;94919.53;5011781;28;20032;-62
2021/08/31 07:12:37;;;;;;;9.48;7.43;;;;;;;17.11;100.00;94909.75;5011928;28;20034;-62
2021/08/31 07:15:04;;;;;;;9.07;6.80;;;;;;;17.13;100.00;94894.00;5010661;28;20072;-62
2021/08/31 07:17:29;;;;;;;8.85;6.75;;;;;;;17.05;100.00;94873.91;5010657;28;20022;-62
2021/08/31 07:19:57;;;;;;;7.47;6.40;;;;;;;16.71;100.00;94858.25;5011965;28;20037;-62
2021/08/31 07:22:23;;;;;;;9.52;7.00;;;;;;;16.65;100.00;94835.13;5011869;28;20040;-61
2021/08/31 07:24:48;;;;;;;11.35;6.93;;;;;;;16.57;100.00;94818.84;5011645;28;20025;-62
2021/08/31 07:27:16;;;;;;;9.38;6.60;;;;;;;16.76;100.00;94784.31;5011816;28;20014;-61
2021/08/31 07:29:42;;;;;;;8.73;6.72;;;;;;;16.87;100.00;94765.91;5012499;28;20436;-62
2021/08/31 07:32:07;;;;;;;9.20;6.38;;;;;;;17.01;100.00;94756.56;5015001;28;20113;-62
2021/08/31 07:34:38;;;;;;;8.68;6.47;;;;;;;17.35;100.00;94749.66;5015322;28;20048;-61
2021/08/31 07:37:05;;;;;;;8.88;6.47;;;;;;;17.71;100.00;94737.81;5015202;28;20028;-62
2021/08/31 07:39:41;;;;;;;8.27;6.28;;;;;;;17.88;100.00;94746.72;5013885;28;20048;-61
2021/08/31 07:42:09;;;;;;;8.25;6.63;;;;;;;18.06;100.00;94779.25;5015361;28;20041;-62
2021/08/31 07:44:39;;;;;;;9.73;6.85;;;;;;;18.08;100.00;94804.13;5015195;28;20037;-62
2021/08/31 07:47:13;;;;;;;9.75;7.05;;;;;;;17.96;100.00;94813.69;5015155;28;20021;-61
2021/08/31 07:49:38;;;;;;;10.13;6.90;;;;;;;17.41;100.00;94826.13;5015113;28;20061;-58
2021/08/31 07:52:04;;;;;;;8.48;7.00;;;;;;;17.01;100.00;94826.13;5014885;28;20449;-51
2021/08/31 07:54:30;;;;;;;8.25;6.60;;;;;;;16.75;100.00;94843.03;5015015;28;20504;-55
2021/08/31 07:57:05;;;;;;;7.60;5.65;;;;;;;16.43;100.00;94852.16;5015376;28;20397;-54
2021/08/31 07:59:30;;;;;;;7.57;5.47;;;;;;;16.78;100.00;94852.41;5025590;28;20028;-53
2021/08/31 08:01:56;;;;;;;6.35;5.55;;;;;;;16.87;100.00;94872.22;5013201;28;20054;-50
2021/08/31 08:04:25;;;;;;;7.35;6.15;;;;;;;17.10;100.00;94891.91;5013305;28;20033;-52
2021/08/31 08:06:53;;;;;;;8.02;6.15;;;;;;;17.34;100.00;94905.88;5013610;28;20022;-55
2021/08/31 08:09:19;;;;;;;6.05;5.28;;;;;;;17.44;100.00;94936.50;5014701;28;20523;-58
2021/08/31 08:11:47;;;;;;;7.78;5.28;;;;;;;17.44;100.00;94963.59;5014686;28;20030;-55
2021/08/31 08:14:17;;;;;;;5.68;4.95;;;;;;;17.07;100.00;95004.28;5013494;28;20025;-55
2021/08/31 08:16:43;;;;;;;6.40;5.05;;;;;;;16.99;100.00;95002.31;5013263;28;20033;-55
2021/08/31 08:19:11;;;;;;;7.80;5.85;;;;;;;16.85;100.00;94995.38;5014525;28;20429;-60
2021/08/31 08:21:37;;;;;;;8.38;5.90;;;;;;;16.69;100.00;95003.81;5014439;28;20029;-57
2021/08/31 08:24:08;;;;;;;6.90;5.72;;;;;;;16.52;100.00;94999.03;5014582;28;20129;-58
2021/08/31 08:26:37;;;;;;;6.80;5.70;;;;;;;16.27;100.00;95001.47;5014429;28;20033;-57
2021/08/31 08:29:06;;;;;;;8.07;6.15;;;;;;;16.02;100.00;95022.50;5014370;28;20484;-58
2021/08/31 08:31:47;;;;;;;7.43;6.07;;;;;;;15.83;100.00;95028.00;5014075;28;20504;-57
2021/08/31 08:34:12;;;;;;;7.88;6.10;;;;;;;15.76;100.00;95038.41;5014261;28;20032;-58
2021/08/31 08:36:38;;;;;;;7.65;6.03;;;;;;;15.76;100.00;95051.91;5014178;28;20022;-58
2021/08/31 08:39:11;;;;;;;7.63;6.38;;;;;;;15.74;100.00;95053.28;5014046;28;20393;-56
2021/08/31 08:41:45;;;;;;;5.75;5.13;;;;;;;15.76;100.00;95061.91;5013179;28;20563;-58
2021/08/31 08:44:11;;;;;;;7.25;5.05;;;;;;;15.86;100.00;95073.34;5014131;28;20180;-53
2021/08/31 08:46:36;;;;;;;6.75;4.97;;;;;;;15.85;100.00;95079.03;5014095;28;20088;-55
2021/08/31 08:49:14;;;;;;;4.88;4.38;;;;;;;15.86;100.00;95080.63;5012636;28;20488;-52
2021/08/31 08:51:41;;;;;;;4.20;3.47;;;;;;;15.83;100.00;95089.31;5013793;28;20030;-52
2021/08/31 08:54:09;;;;;;;5.60;4.00;;;;;;;15.97;100.00;95095.56;5012649;28;20192;-58
2021/08/31 08:56:39;;;;;;;4.57;3.97;;;;;;;16.20;100.00;95102.69;5013575;28;20026;-58
2021/08/31 08:59:05;;;;;;;4.28;3.67;;;;;;;16.80;100.00;95099.84;5013735;28;20021;-59
2021/08/31 09:01:43;;;;;;;3.85;3.15;;;;;;;17.47;100.00;95107.28;5013465;28;20058;-58
2021/08/31 09:04:11;;;;;;;4.85;3.67;;;;;;;17.98;100.00;95125.00;4976724;28;20476;-58
2021/08/31 09:06:45;;;;;;;4.90;3.90;;;;;;;18.49;100.00;95135.31;5008231;28;20022;-58
2021/08/31 09:09:11;;;;;;;4.28;3.70;;;;;;;18.95;100.00;95157.66;4996065;28;20124;-58
2021/08/31 09:11:49;;;;;;;3.97;3.17;;;;;;;18.96;100.00;95198.06;5013368;28;20033;-60
2021/08/31 09:14:16;;;;;;;4.38;3.35;;;;;;;19.15;100.00;95222.22;5013672;28;20095;-60
2021/08/31 09:16:43;;;;;;;5.68;4.43;;;;;;;19.39;100.00;95227.22;5013373;28;20084;-57
2021/08/31 09:19:12;;;;;;;6.13;4.70;;;;;;;19.20;100.00;95251.94;5013407;28;20068;-59
2021/08/31 09:21:48;;;;;;;4.43;3.15;;;;;;;18.49;100.00;95279.06;5013136;28;20080;-58
2021/08/31 09:24:22;;;;;;;4.03;3.60;;;;;;;17.87;100.00;95256.44;5013345;28;20151;-57
2021/08/31 09:26:50;;;;;;;4.68;3.90;;;;;;;17.58;100.00;95219.69;5013307;28;20041;-59
2021/08/31 09:29:19;;;;;;;6.30;4.82;;;;;;;17.48;100.00;95190.13;5013197;28;20029;-61
2021/08/31 09:31:53;;;;;;;5.22;4.20;;;;;;;17.74;100.00;95178.72;5013113;28;20029;-58
2021/08/31 09:34:40;;;;;;;6.60;4.93;;;;;;;18.28;100.00;95180.34;5013016;28;20022;-58
2021/08/31 09:37:25;;;;;;;8.75;4.68;;;;;;;18.71;100.00;95185.22;5013084;28;20036;-58
2021/08/31 09:40:08;;;;;;;6.18;4.57;;;;;;;18.63;100.00;95223.91;5013051;28;20061;-57
2021/08/31 09:42:35;;;;;;;5.20;4.30;;;;;;;18.25;100.00;95243.34;4995412;28;20065;-58
2021/08/31 09:45:05;;;;;;;6.65;4.50;;;;;;;17.95;100.00;95225.91;5012985;28;20034;-56
2021/08/31 09:47:45;;;;;;;5.85;4.28;;;;;;;18.19;100.00;95214.75;5012889;28;20014;-57
2021/08/31 09:50:29;;;;;;;6.85;4.80;;;;;;;18.69;100.00;95220.81;5012838;28;20057;-56
2021/08/31 09:53:01;;;;;;;6.20;4.95;;;;;;;18.89;100.00;95237.66;4972290;28;20076;-58
2021/08/31 09:55:29;;;;;;;7.72;5.75;;;;;;;18.94;100.00;95248.34;4994137;28;20034;-58
2021/08/31 09:58:07;;;;;;;6.60;4.63;;;;;;;19.14;100.00;95274.13;4995317;28;20033;-57
2021/08/31 10:00:36;;;;;;;8.05;4.55;;;;;;;19.49;100.00;95273.13;5012369;28;20097;-55
2021/08/31 10:03:08;;;;;;;7.53;4.88;;;;;;;19.62;100.00;95307.53;5012627;28;20022;-60
2021/08/31 10:05:36;;;;;;;6.47;4.50;;;;;;;19.93;100.00;95310.16;5012734;28;20026;-58
2021/08/31 10:08:06;;;;;;;4.88;4.10;;;;;;;20.04;100.00;95328.88;5005847;28;20121;-58
2021/08/31 10:10:32;;;;;;;5.68;4.32;;;;;;;20.35;100.00;95345.84;4991845;28;20022;-56
2021/08/31 10:13:01;;;;;;;5.28;4.15;;;;;;;20.33;100.00;95374.50;5006554;28;20049;-58
2021/08/31 10:15:29;;;;;;;5.57;3.95;;;;;;;20.58;100.00;95370.19;5025013;28;20504;-56
2021/08/31 10:17:54;;;;;;;4.47;3.90;;;;;;;20.72;100.00;95406.19;5012278;28;20026;-53
2021/08/31 10:20:30;;;;;;;5.13;3.75;;;;;;;20.94;100.00;95395.13;5012293;28;20076;-52
2021/08/31 10:23:02;;;;;;;4.85;3.95;;;;;;;20.70;100.00;95438.38;4993303;28;20509;-55
2021/08/31 10:25:28;;;;;;;3.42;2.95;;;;;;;20.40;100.00;95440.09;5012536;28;20417;-58
2021/08/31 10:27:55;;;;;;;3.88;3.30;;;;;;;20.10;100.00;95418.16;5012364;28;20061;-54
2021/08/31 10:30:31;;;;;;;5.63;3.60;;;;;;;20.36;100.00;95401.06;4994504;28;20053;-52
2021/08/31 10:33:01;;;;;;;4.95;3.63;;;;;;;20.60;100.00;95408.75;5012410;28;20030;-51
2021/08/31 10:35:39;;;;;;;4.22;3.20;;;;;;;20.44;100.00;95441.09;4994659;28;20033;-53
2021/08/31 10:38:10;;;;;;;5.13;4.00;;;;;;;20.39;100.00;95428.41;4994719;28;20029;-50
2021/08/31 10:40:43;;;;;;;6.97;4.20;;;;;;;19.77;100.00;95406.06;5012077;28;20081;-53
2021/08/31 10:43:21;;;;;;;4.88;3.60;;;;;;;19.64;100.00;95383.28;4975301;28;20026;-54
2021/08/31 10:46:12;;;;;;;4.82;3.88;;;;;;;19.35;100.00;95364.81;5006643;28;20029;-54
2021/08/31 10:48:38;;;;;;;4.63;3.95;;;;;;;19.14;100.00;95333.88;4974308;28;20500;-57
2021/08/31 10:51:14;;;;;;;4.63;3.95;;;;;;;19.35;100.00;95308.56;4994728;28;20045;-50
2021/08/31 10:53:51;;;;;;;4.03;3.40;;;;;;;19.96;100.00;95360.34;5012060;28;20113;-52
2021/08/31 10:56:20;;;;;;;3.90;3.00;;;;;;;19.77;100.00;95422.38;4994478;28;20669;-57
2021/08/31 10:58:51;;;;;;;4.40;3.20;;;;;;;19.50;100.00;95390.72;5012107;28;20022;-56
2021/08/31 11:01:34;;;;;;;6.18;3.95;;;;;;;19.19;100.00;95369.03;5012205;28;20044;-53
2021/08/31 11:04:24;;;;;;;;;;;;;;;18.73;100.00;95346.59;5012673;28;20065;-57
2021/08/31 11:07:03;;;;;;;3.72;3.30;;;;;;;18.48;100.00;95320.06;5015812;28;19910;-53
2021/08/31 11:09:32;;;;;;;4.10;3.60;;;;;;;18.25;100.00;95330.91;4998312;28;20039;-54
2021/08/31 11:12:09;;;;;;;3.78;3.08;;;;;;;18.09;100.00;95315.28;5015873;28;20512;-55
2021/08/31 11:14:44;;;;;;;4.43;3.10;;;;;;;18.14;100.00;95277.25;5015785;28;20056;-53
2021/08/31 11:17:11;;;;;;;4.20;3.03;;;;;;;18.13;100.00;95281.84;4998371;28;20473;-59
2021/08/31 11:19:48;;;;;;;3.63;2.95;;;;;;;18.15;100.00;95317.59;5015616;28;20057;-56
2021/08/31 11:22:21;;;;;;;3.10;2.80;;;;;;;18.25;100.00;95317.34;5015461;28;20279;-53
2021/08/31 11:24:54;;;;;;;3.25;2.80;;;;;;;18.25;100.00;95335.53;5015498;28;20026;-59
2021/08/31 11:27:21;;;;;;;3.03;2.45;;;;;;;18.45;100.00;95348.63;5015633;28;20061;-56
2021/08/31 11:29:59;;;;;;;2.83;2.28;;;;;;;18.87;100.00;95343.78;5015509;28;20196;-55
2021/08/31 11:32:27;;;;;;;3.58;2.35;;;;;;;19.06;100.00;95382.38;5015404;28;20397;-51